Terminal Aerodrome Forecast
Issued by NWS

Home | Current Version | Previous Version | Graphics & Text | Print | Product List | Glossary On
Versions: 1 2 3 4 5 6 7 8 9 10 11 12 13 14 15 16 17 18 19 20 21 22 23 24 25
000
FTUS41 KCLE 260541
TAFFDY
TAF
KFDY 260541Z 2606/2706 06008KT P6SM SCT120 OVC250
     FM260900 06006KT 6SM BR SCT015 OVC045
      TEMPO 2609/2613 4SM BR BKN015
     FM261400 14010KT 3SM -RA BR OVC015
     FM261800 18012KT 6SM -SHRA BR OVC025
      TEMPO 2620/2624 4SM -TSRA OVC025CB
     FM270200 20004KT 3SM BR SCT006 BKN120=

USA.gov is the U.S. government's official web portal to all federal, state and local government web resources and services.